Rosemary Beach, FL (32461)

12:10 PM CDT on August 30, 2015 (GMT -0500)
Nelda Sansouci | | Change Station
CLOSE
Current Station
Personal Weather Station
Location: Panama City Beach, FL
Elevation: 39 ft
Nearby Weather Stations

Elev 39 ft 30.24 °N, 85.91 °W | Updated 9 seconds ago

Clear
Clear
88.0 °F
Feels Like 98 °F
N
4.2
Wind Variable Wind from SSW
Gusts 6.3 mph

Today
High -- | Low -- °F
--% Chance of Precip.
Yesterday
High -- | Low -- °F
Precip. -- in
6:19 AM 7:09 PM
Full, 99% visible
Pressure 30.09 in
Visibility 10.0 miles
Clouds Scattered Clouds 2000 ft
Heat Index 98 °F
Dew Point 75 °F
Humidity 65%
Rainfall 0.01 in
Snow Depth Not available.
UV 9 out of 12
Pollen 6.50 out of 12
Air Quality Not available.
Flu Activity Not available.
METAR KECP 301653Z 30006KT 10SM SCT020 31/21 A3006 RMK AO2 SLP189 T03110206
Pressure 30.09 in
Visibility 10.0 miles
Clouds Scattered Clouds 2000 ft
Heat Index 98 °F
Dew Point 75 °F
Humidity 65%
Rainfall 0.01 in
Snow Depth Not available.
UV 9 out of 12
Pollen 6.50 out of 12
Air Quality Not available.
Flu Activity Not available.
METAR KECP 301653Z 30006KT 10SM SCT020 31/21 A3006 RMK AO2 SLP189 T03110206

10-Day Weather Forecast

×

Almanac

Astronomy

Aug. 30, 2015 Rise Set
Actual Time
Civil Twilight
Nautical Twilight
Astronomical Twilight
Moon
Length of Visible Light
Length of Day
Tomorrow will be .
, % of the Moon is Illuminated

Today's Extremes

State Highs State Lows

Community

WunderPhotos

Upload Photos

1,851,014 photos uploaded!

WunderBlogs® & News

Nearby

Air Quality

  Air Quality AQ Index Pollutant
Not available.

Snow Depth

Station Depth Elevation

Earthquake Activity

City Distance Mag. Time & Date
Minimum magnitude displayed is 2.5.

Coastal Water Temperatures

Place Temperature

Stations

Nearby Weather Stations

Station Location Temp. Windchill Dew Point Humidity Wind Precip. Elev Updated Type